sensor_id;sensor_type;location;lat;lon;timestamp;P1;durP1;ratioP1;P2;durP2;ratioP2
63193;SDS011;49289;51.670;5.624;2022-10-28T00:01:33;15.10;;;6.70;;
63193;SDS011;49289;51.670;5.624;2022-10-28T00:03:21;12.70;;;7.00;;
63193;SDS011;49289;51.670;5.624;2022-10-28T00:05:09;14.20;;;7.10;;
63193;SDS011;49289;51.670;5.624;2022-10-28T00:06:56;11.90;;;6.80;;
63193;SDS011;49289;51.670;5.624;2022-10-28T00:08:59;11.80;;;7.00;;
63193;SDS011;49289;51.670;5.624;2022-10-28T00:10:46;12.80;;;7.30;;
63193;SDS011;49289;51.670;5.624;2022-10-28T00:12:34;14.70;;;7.40;;
63193;SDS011;49289;51.670;5.624;2022-10-28T00:14:22;10.70;;;6.90;;
63193;SDS011;49289;51.670;5.624;2022-10-28T00:16:12;14.70;;;7.10;;
63193;SDS011;49289;51.670;5.624;2022-10-28T00:17:58;14.40;;;7.10;;
63193;SDS011;49289;51.670;5.624;2022-10-28T00:19:45;13.60;;;6.50;;
63193;SDS011;49289;51.670;5.624;2022-10-28T00:21:33;15.10;;;7.80;;
63193;SDS011;49289;51.670;5.624;2022-10-28T00:23:19;12.40;;;6.70;;
63193;SDS011;49289;51.670;5.624;2022-10-28T00:25:06;9.60;;;6.50;;
63193;SDS011;49289;51.670;5.624;2022-10-28T00:26:53;15.10;;;6.80;;
63193;SDS011;49289;51.670;5.624;2022-10-28T00:28:45;11.90;;;7.00;;
63193;SDS011;49289;51.670;5.624;2022-10-28T00:30:31;13.90;;;6.70;;
63193;SDS011;49289;51.670;5.624;2022-10-28T00:32:18;19.60;;;7.20;;
63193;SDS011;49289;51.670;5.624;2022-10-28T00:34:06;11.00;;;6.80;;
63193;SDS011;49289;51.670;5.624;2022-10-28T00:35:53;16.50;;;6.80;;
63193;SDS011;49289;51.670;5.624;2022-10-28T00:37:41;13.90;;;7.10;;
63193;SDS011;49289;51.670;5.624;2022-10-28T00:39:29;15.70;;;6.40;;
63193;SDS011;49289;51.670;5.624;2022-10-28T00:41:18;15.20;;;7.10;;
63193;SDS011;49289;51.670;5.624;2022-10-28T00:43:07;11.60;;;6.40;;
63193;SDS011;49289;51.670;5.624;2022-10-28T00:45:00;14.30;;;7.00;;
63193;SDS011;49289;51.670;5.624;2022-10-28T00:46:48;12.10;;;6.50;;
63193;SDS011;49289;51.670;5.624;2022-10-28T00:48:36;16.80;;;7.70;;
63193;SDS011;49289;51.670;5.624;2022-10-28T00:52:32;13.30;;;6.60;;
63193;SDS011;49289;51.670;5.624;2022-10-28T00:54:19;13.40;;;6.60;;
63193;SDS011;49289;51.670;5.624;2022-10-28T00:56:08;13.00;;;6.60;;
63193;SDS011;49289;51.670;5.624;2022-10-28T00:57:55;17.80;;;7.40;;
63193;SDS011;49289;51.670;5.624;2022-10-28T00:59:42;12.20;;;6.60;;
63193;SDS011;49289;51.670;5.624;2022-10-28T01:01:29;14.50;;;7.10;;
63193;SDS011;49289;51.670;5.624;2022-10-28T01:03:16;15.10;;;7.00;;
63193;SDS011;49289;51.670;5.624;2022-10-28T01:05:03;18.10;;;7.40;;
63193;SDS011;49289;51.670;5.624;2022-10-28T01:06:51;14.10;;;6.50;;
63193;SDS011;49289;51.670;5.624;2022-10-28T01:08:40;16.40;;;7.00;;
63193;SDS011;49289;51.670;5.624;2022-10-28T01:10:30;14.00;;;6.70;;
63193;SDS011;49289;51.670;5.624;2022-10-28T01:12:19;18.00;;;7.00;;
63193;SDS011;49289;51.670;5.624;2022-10-28T01:14:14;14.00;;;6.60;;
63193;SDS011;49289;51.670;5.624;2022-10-28T01:16:03;13.30;;;6.70;;
63193;SDS011;49289;51.670;5.624;2022-10-28T01:17:53;10.30;;;6.20;;
63193;SDS011;49289;51.670;5.624;2022-10-28T01:19:45;11.70;;;6.90;;
63193;SDS011;49289;51.670;5.624;2022-10-28T01:21:44;14.20;;;7.20;;
63193;SDS011;49289;51.670;5.624;2022-10-28T01:23:38;13.70;;;7.10;;
63193;SDS011;49289;51.670;5.624;2022-10-28T01:32:00;10.70;;;7.00;;
63193;SDS011;49289;51.670;5.624;2022-10-28T01:33:51;17.60;;;7.20;;
63193;SDS011;49289;51.670;5.624;2022-10-28T01:35:39;14.20;;;7.30;;
63193;SDS011;49289;51.670;5.624;2022-10-28T01:37:27;11.90;;;6.20;;
63193;SDS011;49289;51.670;5.624;2022-10-28T01:39:20;13.30;;;6.90;;
63193;SDS011;49289;51.670;5.624;2022-10-28T01:41:08;11.90;;;6.80;;
63193;SDS011;49289;51.670;5.624;2022-10-28T01:42:56;12.90;;;6.60;;
63193;SDS011;49289;51.670;5.624;2022-10-28T01:44:44;12.20;;;6.60;;
63193;SDS011;49289;51.670;5.624;2022-10-28T01:46:33;14.70;;;6.30;;
63193;SDS011;49289;51.670;5.624;2022-10-28T01:48:20;12.30;;;6.60;;
63193;SDS011;49289;51.670;5.624;2022-10-28T01:50:07;13.10;;;6.70;;
63193;SDS011;49289;51.670;5.624;2022-10-28T01:51:54;15.90;;;6.70;;
63193;SDS011;49289;51.670;5.624;2022-10-28T01:53:41;13.50;;;6.80;;
63193;SDS011;49289;51.670;5.624;2022-10-28T01:55:30;16.10;;;6.70;;
63193;SDS011;49289;51.670;5.624;2022-10-28T01:57:17;11.00;;;6.40;;
63193;SDS011;49289;51.670;5.624;2022-10-28T01:59:06;14.90;;;7.70;;
63193;SDS011;49289;51.670;5.624;2022-10-28T02:00:53;12.40;;;6.60;;
63193;SDS011;49289;51.670;5.624;2022-10-28T02:02:41;11.50;;;6.80;;
63193;SDS011;49289;51.670;5.624;2022-10-28T02:04:29;14.80;;;7.10;;
63193;SDS011;49289;51.670;5.624;2022-10-28T02:06:19;14.00;;;6.30;;
63193;SDS011;49289;51.670;5.624;2022-10-28T02:08:08;11.80;;;6.80;;
63193;SDS011;49289;51.670;5.624;2022-10-28T02:10:02;15.00;;;7.10;;
63193;SDS011;49289;51.670;5.624;2022-10-28T02:11:52;13.70;;;6.70;;
63193;SDS011;49289;51.670;5.624;2022-10-28T02:13:43;12.70;;;6.50;;
63193;SDS011;49289;51.670;5.624;2022-10-28T02:15:35;15.60;;;6.60;;
63193;SDS011;49289;51.670;5.624;2022-10-28T02:17:25;12.50;;;6.70;;
63193;SDS011;49289;51.670;5.624;2022-10-28T02:19:13;13.20;;;6.70;;
63193;SDS011;49289;51.670;5.624;2022-10-28T02:21:01;12.70;;;6.10;;
63193;SDS011;49289;51.670;5.624;2022-10-28T02:22:50;15.90;;;6.30;;
63193;SDS011;49289;51.670;5.624;2022-10-28T02:24:39;15.70;;;6.40;;
63193;SDS011;49289;51.670;5.624;2022-10-28T02:26:27;11.60;;;6.10;;
63193;SDS011;49289;51.670;5.624;2022-10-28T02:28:13;13.40;;;6.00;;
63193;SDS011;49289;51.670;5.624;2022-10-28T02:30:01;12.70;;;6.90;;
63193;SDS011;49289;51.670;5.624;2022-10-28T02:31:48;13.20;;;6.50;;
63193;SDS011;49289;51.670;5.624;2022-10-28T02:33:37;14.40;;;7.40;;
63193;SDS011;49289;51.670;5.624;2022-10-28T02:35:24;15.00;;;6.50;;
63193;SDS011;49289;51.670;5.624;2022-10-28T02:37:11;13.40;;;6.60;;
63193;SDS011;49289;51.670;5.624;2022-10-28T02:38:58;10.40;;;6.60;;
63193;SDS011;49289;51.670;5.624;2022-10-28T02:40:48;15.50;;;6.90;;
63193;SDS011;49289;51.670;5.624;2022-10-28T02:42:34;11.40;;;6.30;;
63193;SDS011;49289;51.670;5.624;2022-10-28T02:44:22;17.50;;;7.10;;
63193;SDS011;49289;51.670;5.624;2022-10-28T02:46:09;11.30;;;6.40;;
63193;SDS011;49289;51.670;5.624;2022-10-28T02:47:58;12.20;;;6.10;;
63193;SDS011;49289;51.670;5.624;2022-10-28T02:49:47;12.90;;;6.50;;
63193;SDS011;49289;51.670;5.624;2022-10-28T02:51:34;12.50;;;6.40;;
63193;SDS011;49289;51.670;5.624;2022-10-28T02:53:21;13.30;;;6.60;;
63193;SDS011;49289;51.670;5.624;2022-10-28T02:55:07;13.30;;;6.10;;
63193;SDS011;49289;51.670;5.624;2022-10-28T02:56:58;8.60;;;6.10;;
63193;SDS011;49289;51.670;5.624;2022-10-28T02:58:43;11.50;;;5.80;;
63193;SDS011;49289;51.670;5.624;2022-10-28T03:00:31;11.00;;;5.90;;
63193;SDS011;49289;51.670;5.624;2022-10-28T03:02:18;15.40;;;6.20;;
63193;SDS011;49289;51.670;5.624;2022-10-28T03:04:06;14.80;;;6.60;;
63193;SDS011;49289;51.670;5.624;2022-10-28T03:05:53;12.90;;;6.60;;
63193;SDS011;49289;51.670;5.624;2022-10-28T03:07:41;10.40;;;6.10;;
63193;SDS011;49289;51.670;5.624;2022-10-28T03:09:28;15.60;;;6.70;;
63193;SDS011;49289;51.670;5.624;2022-10-28T03:11:16;12.30;;;5.80;;
63193;SDS011;49289;51.670;5.624;2022-10-28T03:13:03;11.20;;;6.00;;
63193;SDS011;49289;51.670;5.624;2022-10-28T03:14:50;11.10;;;6.30;;
63193;SDS011;49289;51.670;5.624;2022-10-28T03:16:37;13.30;;;5.80;;
63193;SDS011;49289;51.670;5.624;2022-10-28T03:18:24;13.20;;;6.10;;
63193;SDS011;49289;51.670;5.624;2022-10-28T03:20:12;10.70;;;5.80;;
63193;SDS011;49289;51.670;5.624;2022-10-28T03:21:59;13.00;;;6.50;;
63193;SDS011;49289;51.670;5.624;2022-10-28T03:23:46;10.00;;;6.00;;
63193;SDS011;49289;51.670;5.624;2022-10-28T03:25:33;13.40;;;5.60;;
63193;SDS011;49289;51.670;5.624;2022-10-28T03:27:20;12.10;;;6.40;;
63193;SDS011;49289;51.670;5.624;2022-10-28T03:29:07;14.00;;;6.30;;
63193;SDS011;49289;51.670;5.624;2022-10-28T03:30:54;13.50;;;6.70;;
63193;SDS011;49289;51.670;5.624;2022-10-28T03:32:41;10.20;;;5.80;;
63193;SDS011;49289;51.670;5.624;2022-10-28T03:34:28;11.40;;;6.40;;
63193;SDS011;49289;51.670;5.624;2022-10-28T03:36:15;12.70;;;6.10;;
63193;SDS011;49289;51.670;5.624;2022-10-28T03:38:02;10.80;;;6.00;;
63193;SDS011;49289;51.670;5.624;2022-10-28T03:39:49;13.40;;;6.40;;
63193;SDS011;49289;51.670;5.624;2022-10-28T03:41:36;12.50;;;5.90;;
63193;SDS011;49289;51.670;5.624;2022-10-28T03:43:23;11.60;;;6.20;;
63193;SDS011;49289;51.670;5.624;2022-10-28T03:45:12;11.80;;;5.90;;
63193;SDS011;49289;51.670;5.624;2022-10-28T03:47:00;12.60;;;6.80;;
63193;SDS011;49289;51.670;5.624;2022-10-28T03:48:48;15.00;;;6.00;;
63193;SDS011;49289;51.670;5.624;2022-10-28T03:50:36;11.00;;;5.80;;
63193;SDS011;49289;51.670;5.624;2022-10-28T03:52:24;10.90;;;5.70;;
63193;SDS011;49289;51.670;5.624;2022-10-28T03:54:12;12.40;;;5.80;;
63193;SDS011;49289;51.670;5.624;2022-10-28T03:55:59;14.20;;;6.20;;
63193;SDS011;49289;51.670;5.624;2022-10-28T03:57:47;11.60;;;6.40;;
63193;SDS011;49289;51.670;5.624;2022-10-28T03:59:35;11.60;;;5.20;;
63193;SDS011;49289;51.670;5.624;2022-10-28T04:01:23;12.90;;;6.10;;
63193;SDS011;49289;51.670;5.624;2022-10-28T04:03:11;14.00;;;5.90;;
63193;SDS011;49289;51.670;5.624;2022-10-28T04:04:59;12.10;;;5.60;;
63193;SDS011;49289;51.670;5.624;2022-10-28T04:06:47;11.00;;;5.70;;
63193;SDS011;49289;51.670;5.624;2022-10-28T04:08:35;11.20;;;6.20;;
63193;SDS011;49289;51.670;5.624;2022-10-28T04:10:23;16.00;;;5.80;;
63193;SDS011;49289;51.670;5.624;2022-10-28T04:12:11;13.50;;;6.00;;
63193;SDS011;49289;51.670;5.624;2022-10-28T04:13:58;13.20;;;5.70;;
63193;SDS011;49289;51.670;5.624;2022-10-28T04:15:45;16.20;;;5.90;;
63193;SDS011;49289;51.670;5.624;2022-10-28T04:17:32;12.70;;;6.30;;
63193;SDS011;49289;51.670;5.624;2022-10-28T04:19:20;15.50;;;6.20;;
63193;SDS011;49289;51.670;5.624;2022-10-28T04:21:08;10.80;;;5.70;;
63193;SDS011;49289;51.670;5.624;2022-10-28T04:22:55;15.00;;;5.80;;
63193;SDS011;49289;51.670;5.624;2022-10-28T04:24:42;10.60;;;5.90;;
63193;SDS011;49289;51.670;5.624;2022-10-28T04:26:29;14.40;;;6.40;;
63193;SDS011;49289;51.670;5.624;2022-10-28T04:28:16;18.10;;;6.50;;
63193;SDS011;49289;51.670;5.624;2022-10-28T04:30:03;12.10;;;6.50;;
63193;SDS011;49289;51.670;5.624;2022-10-28T04:31:51;11.60;;;6.00;;
63193;SDS011;49289;51.670;5.624;2022-10-28T04:33:38;12.10;;;6.10;;
63193;SDS011;49289;51.670;5.624;2022-10-28T04:35:25;11.90;;;6.20;;
63193;SDS011;49289;51.670;5.624;2022-10-28T04:37:13;12.20;;;6.00;;
63193;SDS011;49289;51.670;5.624;2022-10-28T04:39:01;13.30;;;6.00;;
63193;SDS011;49289;51.670;5.624;2022-10-28T04:40:51;13.20;;;6.00;;
63193;SDS011;49289;51.670;5.624;2022-10-28T04:42:39;18.00;;;7.10;;
63193;SDS011;49289;51.670;5.624;2022-10-28T04:44:27;12.50;;;5.70;;
63193;SDS011;49289;51.670;5.624;2022-10-28T04:46:15;12.00;;;6.10;;
63193;SDS011;49289;51.670;5.624;2022-10-28T04:48:03;15.80;;;6.40;;
63193;SDS011;49289;51.670;5.624;2022-10-28T04:49:50;15.40;;;6.20;;
63193;SDS011;49289;51.670;5.624;2022-10-28T04:51:37;13.70;;;6.60;;
63193;SDS011;49289;51.670;5.624;2022-10-28T04:53:24;12.90;;;6.50;;
63193;SDS011;49289;51.670;5.624;2022-10-28T04:55:11;14.80;;;6.30;;
63193;SDS011;49289;51.670;5.624;2022-10-28T04:56:59;12.30;;;6.40;;
63193;SDS011;49289;51.670;5.624;2022-10-28T04:58:47;12.50;;;6.60;;
63193;SDS011;49289;51.670;5.624;2022-10-28T05:00:35;12.60;;;6.60;;
63193;SDS011;49289;51.670;5.624;2022-10-28T05:02:23;12.70;;;6.20;;
63193;SDS011;49289;51.670;5.624;2022-10-28T05:04:12;18.20;;;6.60;;
63193;SDS011;49289;51.670;5.624;2022-10-28T05:06:00;15.20;;;6.50;;
63193;SDS011;49289;51.670;5.624;2022-10-28T05:07:48;14.30;;;6.40;;
63193;SDS011;49289;51.670;5.624;2022-10-28T05:09:36;10.40;;;5.80;;
63193;SDS011;49289;51.670;5.624;2022-10-28T05:11:23;16.60;;;6.20;;
63193;SDS011;49289;51.670;5.624;2022-10-28T05:13:11;15.00;;;6.10;;
63193;SDS011;49289;51.670;5.624;2022-10-28T05:14:59;19.80;;;6.40;;
63193;SDS011;49289;51.670;5.624;2022-10-28T05:16:47;12.20;;;6.70;;
63193;SDS011;49289;51.670;5.624;2022-10-28T05:18:35;11.80;;;6.00;;
63193;SDS011;49289;51.670;5.624;2022-10-28T05:20:23;10.10;;;5.90;;
63193;SDS011;49289;51.670;5.624;2022-10-28T05:22:11;14.20;;;5.90;;
63193;SDS011;49289;51.670;5.624;2022-10-28T05:23:59;14.70;;;5.70;;
63193;SDS011;49289;51.670;5.624;2022-10-28T05:25:47;13.50;;;5.80;;
63193;SDS011;49289;51.670;5.624;2022-10-28T05:27:35;16.70;;;6.00;;
63193;SDS011;49289;51.670;5.624;2022-10-28T05:29:22;12.20;;;5.80;;
63193;SDS011;49289;51.670;5.624;2022-10-28T05:31:10;11.90;;;5.50;;
63193;SDS011;49289;51.670;5.624;2022-10-28T05:33:03;11.20;;;5.50;;
63193;SDS011;49289;51.670;5.624;2022-10-28T05:34:51;16.10;;;5.90;;
63193;SDS011;49289;51.670;5.624;2022-10-28T05:36:39;12.00;;;5.80;;
63193;SDS011;49289;51.670;5.624;2022-10-28T05:38:27;14.80;;;5.60;;
63193;SDS011;49289;51.670;5.624;2022-10-28T05:40:16;13.10;;;6.10;;
63193;SDS011;49289;51.670;5.624;2022-10-28T05:42:04;11.50;;;5.80;;
63193;SDS011;49289;51.670;5.624;2022-10-28T05:43:52;14.30;;;5.70;;
63193;SDS011;49289;51.670;5.624;2022-10-28T05:45:39;11.00;;;5.70;;
63193;SDS011;49289;51.670;5.624;2022-10-28T05:47:27;13.20;;;5.60;;
63193;SDS011;49289;51.670;5.624;2022-10-28T05:49:53;11.10;;;5.90;;
63193;SDS011;49289;51.670;5.624;2022-10-28T05:51:40;11.50;;;5.50;;
63193;SDS011;49289;51.670;5.624;2022-10-28T05:53:27;14.10;;;5.80;;
63193;SDS011;49289;51.670;5.624;2022-10-28T05:55:15;14.30;;;6.50;;
63193;SDS011;49289;51.670;5.624;2022-10-28T05:57:02;10.70;;;5.90;;
63193;SDS011;49289;51.670;5.624;2022-10-28T05:58:50;14.20;;;6.20;;
63193;SDS011;49289;51.670;5.624;2022-10-28T06:00:38;12.20;;;5.70;;
63193;SDS011;49289;51.670;5.624;2022-10-28T06:02:25;11.30;;;5.80;;
63193;SDS011;49289;51.670;5.624;2022-10-28T06:04:13;12.40;;;5.90;;
63193;SDS011;49289;51.670;5.624;2022-10-28T06:06:01;11.90;;;5.70;;
63193;SDS011;49289;51.670;5.624;2022-10-28T06:07:50;11.50;;;5.60;;
63193;SDS011;49289;51.670;5.624;2022-10-28T06:09:38;18.50;;;5.90;;
63193;SDS011;49289;51.670;5.624;2022-10-28T06:11:26;13.80;;;5.70;;
63193;SDS011;49289;51.670;5.624;2022-10-28T06:13:14;13.00;;;6.00;;
63193;SDS011;49289;51.670;5.624;2022-10-28T06:15:02;13.70;;;5.60;;
63193;SDS011;49289;51.670;5.624;2022-10-28T06:16:50;10.10;;;5.40;;
63193;SDS011;49289;51.670;5.624;2022-10-28T06:18:38;14.60;;;5.50;;
63193;SDS011;49289;51.670;5.624;2022-10-28T06:20:26;11.20;;;5.60;;
63193;SDS011;49289;51.670;5.624;2022-10-28T06:22:13;15.70;;;5.70;;
63193;SDS011;49289;51.670;5.624;2022-10-28T06:24:00;15.70;;;6.20;;
63193;SDS011;49289;51.670;5.624;2022-10-28T06:25:48;13.00;;;5.90;;
63193;SDS011;49289;51.670;5.624;2022-10-28T06:27:36;19.50;;;6.00;;
63193;SDS011;49289;51.670;5.624;2022-10-28T06:29:23;14.20;;;5.90;;
63193;SDS011;49289;51.670;5.624;2022-10-28T06:31:10;12.40;;;6.10;;
63193;SDS011;49289;51.670;5.624;2022-10-28T06:33:00;13.10;;;5.90;;
63193;SDS011;49289;51.670;5.624;2022-10-28T06:34:47;12.60;;;5.60;;
63193;SDS011;49289;51.670;5.624;2022-10-28T06:36:34;12.70;;;6.30;;
63193;SDS011;49289;51.670;5.624;2022-10-28T06:38:21;16.50;;;6.10;;
63193;SDS011;49289;51.670;5.624;2022-10-28T06:40:09;12.60;;;6.10;;
63193;SDS011;49289;51.670;5.624;2022-10-28T06:41:56;15.00;;;5.80;;
63193;SDS011;49289;51.670;5.624;2022-10-28T06:43:43;14.20;;;5.80;;
63193;SDS011;49289;51.670;5.624;2022-10-28T06:45:31;13.70;;;6.20;;
63193;SDS011;49289;51.670;5.624;2022-10-28T06:47:17;15.30;;;5.90;;
63193;SDS011;49289;51.670;5.624;2022-10-28T06:49:04;16.70;;;6.30;;
63193;SDS011;49289;51.670;5.624;2022-10-28T06:50:53;15.20;;;6.00;;
63193;SDS011;49289;51.670;5.624;2022-10-28T06:52:39;15.70;;;5.90;;
63193;SDS011;49289;51.670;5.624;2022-10-28T06:54:26;15.00;;;5.60;;
63193;SDS011;49289;51.670;5.624;2022-10-28T06:56:13;14.00;;;6.10;;
63193;SDS011;49289;51.670;5.624;2022-10-28T06:58:03;13.10;;;5.90;;
63193;SDS011;49289;51.670;5.624;2022-10-28T06:59:51;15.70;;;5.50;;
63193;SDS011;49289;51.670;5.624;2022-10-28T07:01:39;15.60;;;5.60;;
63193;SDS011;49289;51.670;5.624;2022-10-28T07:03:27;14.00;;;5.50;;
63193;SDS011;49289;51.670;5.624;2022-10-28T07:05:15;9.80;;;5.40;;
63193;SDS011;49289;51.670;5.624;2022-10-28T07:07:03;11.40;;;5.50;;
63193;SDS011;49289;51.670;5.624;2022-10-28T07:08:51;15.90;;;5.90;;
63193;SDS011;49289;51.670;5.624;2022-10-28T07:10:39;16.40;;;6.40;;
63193;SDS011;49289;51.670;5.624;2022-10-28T07:12:27;14.00;;;6.00;;
63193;SDS011;49289;51.670;5.624;2022-10-28T07:14:15;16.00;;;5.90;;
63193;SDS011;49289;51.670;5.624;2022-10-28T07:16:03;16.80;;;5.50;;
63193;SDS011;49289;51.670;5.624;2022-10-28T07:17:50;17.30;;;6.00;;
63193;SDS011;49289;51.670;5.624;2022-10-28T07:19:37;14.30;;;6.00;;
63193;SDS011;49289;51.670;5.624;2022-10-28T07:21:24;13.30;;;5.70;;
63193;SDS011;49289;51.670;5.624;2022-10-28T07:23:11;13.80;;;6.00;;
63193;SDS011;49289;51.670;5.624;2022-10-28T07:24:58;15.20;;;5.80;;
63193;SDS011;49289;51.670;5.624;2022-10-28T07:26:46;16.70;;;6.10;;
63193;SDS011;49289;51.670;5.624;2022-10-28T07:28:34;16.10;;;6.20;;
63193;SDS011;49289;51.670;5.624;2022-10-28T07:30:23;16.10;;;5.80;;
63193;SDS011;49289;51.670;5.624;2022-10-28T07:32:10;13.40;;;6.00;;
63193;SDS011;49289;51.670;5.624;2022-10-28T07:33:58;14.50;;;6.80;;
63193;SDS011;49289;51.670;5.624;2022-10-28T07:35:47;15.00;;;6.30;;
63193;SDS011;49289;51.670;5.624;2022-10-28T07:37:36;13.90;;;6.30;;
63193;SDS011;49289;51.670;5.624;2022-10-28T07:39:22;18.30;;;6.40;;
63193;SDS011;49289;51.670;5.624;2022-10-28T07:41:09;17.50;;;6.50;;
63193;SDS011;49289;51.670;5.624;2022-10-28T07:42:57;13.70;;;7.10;;
63193;SDS011;49289;51.670;5.624;2022-10-28T07:44:45;15.50;;;6.10;;
63193;SDS011;49289;51.670;5.624;2022-10-28T07:46:34;17.00;;;6.60;;
63193;SDS011;49289;51.670;5.624;2022-10-28T07:48:21;13.70;;;6.10;;
63193;SDS011;49289;51.670;5.624;2022-10-28T07:50:10;13.60;;;6.00;;
63193;SDS011;49289;51.670;5.624;2022-10-28T07:51:58;16.00;;;6.40;;
63193;SDS011;49289;51.670;5.624;2022-10-28T07:53:44;12.70;;;6.20;;
63193;SDS011;49289;51.670;5.624;2022-10-28T07:55:31;15.20;;;6.30;;
63193;SDS011;49289;51.670;5.624;2022-10-28T07:57:18;15.20;;;6.40;;
63193;SDS011;49289;51.670;5.624;2022-10-28T07:59:05;16.00;;;6.10;;
63193;SDS011;49289;51.670;5.624;2022-10-28T08:00:52;16.50;;;5.80;;
63193;SDS011;49289;51.670;5.624;2022-10-28T08:02:39;14.90;;;5.90;;
63193;SDS011;49289;51.670;5.624;2022-10-28T08:04:27;13.00;;;6.00;;
63193;SDS011;49289;51.670;5.624;2022-10-28T08:06:16;18.30;;;6.80;;
63193;SDS011;49289;51.670;5.624;2022-10-28T08:08:02;12.80;;;5.50;;
63193;SDS011;49289;51.670;5.624;2022-10-28T08:09:51;15.00;;;6.00;;
63193;SDS011;49289;51.670;5.624;2022-10-28T08:11:39;17.20;;;6.00;;
63193;SDS011;49289;51.670;5.624;2022-10-28T08:13:26;16.90;;;6.10;;
63193;SDS011;49289;51.670;5.624;2022-10-28T08:15:13;12.00;;;5.80;;
63193;SDS011;49289;51.670;5.624;2022-10-28T08:17:02;12.80;;;5.50;;
63193;SDS011;49289;51.670;5.624;2022-10-28T08:18:49;13.40;;;5.80;;
63193;SDS011;49289;51.670;5.624;2022-10-28T08:20:37;13.50;;;5.60;;
63193;SDS011;49289;51.670;5.624;2022-10-28T08:22:25;14.90;;;5.50;;
63193;SDS011;49289;51.670;5.624;2022-10-28T08:24:13;13.60;;;6.30;;
63193;SDS011;49289;51.670;5.624;2022-10-28T08:26:01;27.00;;;6.00;;
63193;SDS011;49289;51.670;5.624;2022-10-28T08:27:50;17.40;;;6.20;;
63193;SDS011;49289;51.670;5.624;2022-10-28T08:29:38;14.30;;;6.10;;
63193;SDS011;49289;51.670;5.624;2022-10-28T08:31:26;13.60;;;6.00;;
63193;SDS011;49289;51.670;5.624;2022-10-28T08:33:13;15.90;;;7.00;;
63193;SDS011;49289;51.670;5.624;2022-10-28T08:35:00;17.30;;;6.10;;
63193;SDS011;49289;51.670;5.624;2022-10-28T08:36:47;13.00;;;6.30;;
63193;SDS011;49289;51.670;5.624;2022-10-28T08:38:34;15.30;;;5.80;;
63193;SDS011;49289;51.670;5.624;2022-10-28T08:40:22;17.70;;;6.00;;
63193;SDS011;49289;51.670;5.624;2022-10-28T08:42:16;13.40;;;5.80;;
63193;SDS011;49289;51.670;5.624;2022-10-28T08:46:22;14.10;;;5.60;;
63193;SDS011;49289;51.670;5.624;2022-10-28T08:48:11;14.80;;;5.50;;
63193;SDS011;49289;51.670;5.624;2022-10-28T08:50:00;17.40;;;5.30;;
63193;SDS011;49289;51.670;5.624;2022-10-28T08:51:48;14.70;;;5.40;;
63193;SDS011;49289;51.670;5.624;2022-10-28T08:53:36;15.30;;;5.30;;
63193;SDS011;49289;51.670;5.624;2022-10-28T08:55:24;12.30;;;4.70;;
63193;SDS011;49289;51.670;5.624;2022-10-28T08:57:13;27.10;;;6.10;;
63193;SDS011;49289;51.670;5.624;2022-10-28T08:59:00;11.40;;;5.00;;
63193;SDS011;49289;51.670;5.624;2022-10-28T09:00:49;13.20;;;5.00;;
63193;SDS011;49289;51.670;5.624;2022-10-28T09:02:35;11.90;;;5.20;;
63193;SDS011;49289;51.670;5.624;2022-10-28T09:04:25;12.70;;;5.20;;
63193;SDS011;49289;51.670;5.624;2022-10-28T09:06:12;13.10;;;5.50;;
63193;SDS011;49289;51.670;5.624;2022-10-28T09:08:00;14.90;;;5.10;;
63193;SDS011;49289;51.670;5.624;2022-10-28T09:09:49;16.90;;;7.00;;
63193;SDS011;49289;51.670;5.624;2022-10-28T09:11:49;13.10;;;6.10;;
63193;SDS011;49289;51.670;5.624;2022-10-28T09:13:43;11.50;;;5.30;;
63193;SDS011;49289;51.670;5.624;2022-10-28T09:15:33;16.30;;;5.40;;
63193;SDS011;49289;51.670;5.624;2022-10-28T09:17:23;11.90;;;5.00;;
63193;SDS011;49289;51.670;5.624;2022-10-28T09:19:13;16.30;;;5.60;;
63193;SDS011;49289;51.670;5.624;2022-10-28T09:21:01;11.10;;;4.90;;
63193;SDS011;49289;51.670;5.624;2022-10-28T09:22:50;12.30;;;5.10;;
63193;SDS011;49289;51.670;5.624;2022-10-28T09:24:44;9.90;;;4.90;;
63193;SDS011;49289;51.670;5.624;2022-10-28T09:26:32;14.60;;;4.90;;
63193;SDS011;49289;51.670;5.624;2022-10-28T09:28:25;13.90;;;4.90;;
63193;SDS011;49289;51.670;5.624;2022-10-28T09:32:19;20.80;;;5.20;;
63193;SDS011;49289;51.670;5.624;2022-10-28T09:34:12;13.20;;;5.10;;
63193;SDS011;49289;51.670;5.624;2022-10-28T09:36:00;14.70;;;4.90;;
63193;SDS011;49289;51.670;5.624;2022-10-28T09:37:48;15.80;;;4.70;;
63193;SDS011;49289;51.670;5.624;2022-10-28T09:39:38;14.50;;;5.50;;
63193;SDS011;49289;51.670;5.624;2022-10-28T09:41:26;14.10;;;5.10;;
63193;SDS011;49289;51.670;5.624;2022-10-28T09:43:14;13.60;;;5.10;;
63193;SDS011;49289;51.670;5.624;2022-10-28T09:45:01;11.70;;;4.70;;
63193;SDS011;49289;51.670;5.624;2022-10-28T09:46:50;12.10;;;5.10;;
63193;SDS011;49289;51.670;5.624;2022-10-28T09:48:36;16.20;;;4.80;;
63193;SDS011;49289;51.670;5.624;2022-10-28T09:50:26;12.40;;;4.50;;
63193;SDS011;49289;51.670;5.624;2022-10-28T09:52:14;13.90;;;5.30;;
63193;SDS011;49289;51.670;5.624;2022-10-28T09:54:01;15.80;;;5.70;;
63193;SDS011;49289;51.670;5.624;2022-10-28T09:55:50;13.30;;;6.10;;
63193;SDS011;49289;51.670;5.624;2022-10-28T09:57:38;16.10;;;5.30;;
63193;SDS011;49289;51.670;5.624;2022-10-28T09:59:26;13.50;;;4.60;;
63193;SDS011;49289;51.670;5.624;2022-10-28T10:01:14;12.80;;;4.80;;
63193;SDS011;49289;51.670;5.624;2022-10-28T10:03:01;11.40;;;4.90;;
63193;SDS011;49289;51.670;5.624;2022-10-28T10:04:48;16.20;;;5.10;;
63193;SDS011;49289;51.670;5.624;2022-10-28T10:06:37;11.90;;;4.40;;
63193;SDS011;49289;51.670;5.624;2022-10-28T10:08:23;14.10;;;4.80;;
63193;SDS011;49289;51.670;5.624;2022-10-28T10:10:12;11.20;;;4.90;;
63193;SDS011;49289;51.670;5.624;2022-10-28T10:11:59;15.60;;;4.70;;
63193;SDS011;49289;51.670;5.624;2022-10-28T10:13:48;9.90;;;4.40;;
63193;SDS011;49289;51.670;5.624;2022-10-28T10:15:36;11.00;;;4.70;;
63193;SDS011;49289;51.670;5.624;2022-10-28T10:17:23;11.60;;;4.50;;
63193;SDS011;49289;51.670;5.624;2022-10-28T10:19:10;14.70;;;5.40;;
63193;SDS011;49289;51.670;5.624;2022-10-28T10:20:57;13.10;;;5.50;;
63193;SDS011;49289;51.670;5.624;2022-10-28T10:22:45;11.70;;;4.60;;
63193;SDS011;49289;51.670;5.624;2022-10-28T10:24:34;14.20;;;5.00;;
63193;SDS011;49289;51.670;5.624;2022-10-28T10:26:21;15.20;;;4.90;;
63193;SDS011;49289;51.670;5.624;2022-10-28T10:28:13;14.60;;;4.70;;
63193;SDS011;49289;51.670;5.624;2022-10-28T10:29:59;12.70;;;5.10;;
63193;SDS011;49289;51.670;5.624;2022-10-28T10:31:47;11.20;;;4.50;;
63193;SDS011;49289;51.670;5.624;2022-10-28T10:33:36;11.40;;;4.00;;
63193;SDS011;49289;51.670;5.624;2022-10-28T10:35:24;10.50;;;4.70;;
63193;SDS011;49289;51.670;5.624;2022-10-28T10:37:18;13.20;;;4.60;;
63193;SDS011;49289;51.670;5.624;2022-10-28T10:39:05;14.30;;;4.70;;
63193;SDS011;49289;51.670;5.624;2022-10-28T10:41:00;10.20;;;4.40;;
63193;SDS011;49289;51.670;5.624;2022-10-28T10:42:47;13.20;;;4.40;;
63193;SDS011;49289;51.670;5.624;2022-10-28T10:44:35;12.60;;;4.80;;
63193;SDS011;49289;51.670;5.624;2022-10-28T10:46:23;11.90;;;4.40;;
63193;SDS011;49289;51.670;5.624;2022-10-28T10:48:11;11.80;;;4.60;;
63193;SDS011;49289;51.670;5.624;2022-10-28T10:50:00;13.80;;;4.20;;
63193;SDS011;49289;51.670;5.624;2022-10-28T10:52:05;13.70;;;3.90;;
63193;SDS011;49289;51.670;5.624;2022-10-28T10:53:53;18.30;;;4.40;;
63193;SDS011;49289;51.670;5.624;2022-10-28T10:55:40;10.40;;;4.00;;
63193;SDS011;49289;51.670;5.624;2022-10-28T10:57:28;14.10;;;4.30;;